Time;durP1;ratioP1;P1;durP2;ratioP2;P2;SDS_P1;SDS_P2;PMS_P1;PMS_P2;Temp;Humidity;BMP_temperature;BMP_pressure;BME280_temperature;BME280_humidity;BME280_pressure;Samples;Min_cycle;Max_cycle;Signal;HPM_P1;HPM_P2
2023/05/23 00:00:54;;;;;;;5.55;4.07;;;;;;;10.64;88.24;101377.31;10642195;27;20031;-77
2023/05/23 00:05:57;;;;;;;6.55;4.13;;;;;;;10.60;88.30;101373.44;10625609;27;20039;-78
2023/05/23 00:11:02;;;;;;;6.55;4.38;;;;;;;10.53;88.40;101374.47;10657224;27;20042;-75
2023/05/23 00:16:08;;;;;;;6.60;4.68;;;;;;;10.52;88.34;101377.47;10605645;27;20402;-80
2023/05/23 00:21:12;;;;;;;5.28;4.10;;;;;;;10.53;88.80;101368.97;10637077;27;20497;-80
2023/05/23 00:26:14;;;;;;;6.47;4.68;;;;;;;10.62;88.93;101360.28;10646291;27;20142;-80
2023/05/23 00:31:21;;;;;;;7.13;4.63;;;;;;;10.54;88.25;101364.31;10631940;27;20516;-76
2023/05/23 00:36:23;;;;;;;7.07;4.97;;;;;;;10.55;88.44;101361.31;10613614;27;20047;-76
2023/05/23 00:41:29;;;;;;;10.35;4.95;;;;;;;10.60;88.50;101356.97;10583709;27;20039;-76
2023/05/23 00:46:33;;;;;;;8.83;4.70;;;;;;;10.62;88.91;101363.84;10622967;27;20099;-76
2023/05/23 00:51:35;;;;;;;8.20;5.25;;;;;;;10.64;88.72;101360.84;10628348;27;20039;-76
2023/05/23 00:56:37;;;;;;;11.50;5.05;;;;;;;10.56;88.39;101365.69;10627038;27;20500;-76
2023/05/23 01:01:40;;;;;;;8.30;5.03;;;;;;;10.44;88.30;101356.84;10642018;27;20058;-75
2023/05/23 01:06:45;;;;;;;7.30;5.25;;;;;;;10.38;88.55;101359.78;10622529;27;20544;-76
2023/05/23 01:12:12;;;;;;;9.00;5.82;;;;;;;10.43;88.60;101366.16;10620751;27;20447;-75
2023/05/23 01:17:40;;;;;;;8.88;5.70;;;;;;;10.48;89.50;101357.16;10633667;27;20043;-75
2023/05/23 01:23:01;;;;;;;8.68;5.80;;;;;;;10.53;89.52;101366.22;10649798;27;20074;-76
2023/05/23 01:28:05;;;;;;;9.57;5.38;;;;;;;10.68;88.78;101367.44;10639701;27;20057;-75
2023/05/23 01:33:08;;;;;;;10.25;5.72;;;;;;;10.74;88.32;101361.72;10598962;27;20051;-76
2023/05/23 01:38:10;;;;;;;9.70;6.50;;;;;;;10.73;88.17;101353.75;10648172;27;20050;-76
2023/05/23 01:43:14;;;;;;;9.70;5.65;;;;;;;10.80;87.94;101357.94;10621944;27;20038;-76
2023/05/23 01:48:17;;;;;;;7.95;5.28;;;;;;;10.69;87.77;101358.09;10600884;27;20070;-75
2023/05/23 01:53:21;;;;;;;9.52;5.65;;;;;;;10.62;87.21;101363.00;10632394;27;20036;-76
2023/05/23 01:58:23;;;;;;;7.90;5.82;;;;;;;10.60;88.03;101365.19;10638415;27;20046;-76
2023/05/23 02:03:26;;;;;;;11.52;5.68;;;;;;;10.86;87.24;101358.78;10602121;28;20046;-76
2023/05/23 02:08:28;;;;;;;9.05;5.35;;;;;;;11.13;85.97;101359.47;10630842;27;20046;-76
2023/05/23 02:13:31;;;;;;;8.93;5.53;;;;;;;11.38;85.96;101366.16;10660528;27;20036;-76
2023/05/23 02:18:36;;;;;;;7.78;5.55;;;;;;;11.77;83.91;101361.88;10637041;27;20046;-76
2023/05/23 02:23:39;;;;;;;9.80;5.53;;;;;;;11.88;82.46;101361.97;10633554;27;20524;-76
2023/05/23 02:28:41;;;;;;;9.80;5.90;;;;;;;12.13;82.01;101361.16;10636540;27;20551;-76
2023/05/23 02:33:43;;;;;;;9.90;5.35;;;;;;;12.50;79.82;101350.72;10653388;27;20080;-76
2023/05/23 02:38:45;;;;;;;9.15;5.70;;;;;;;12.67;79.18;101348.50;10618598;27;20054;-76
2023/05/23 02:43:47;;;;;;;8.85;5.85;;;;;;;13.04;77.64;101338.22;10634878;27;20035;-74
2023/05/23 02:48:51;;;;;;;9.75;6.35;;;;;;;13.28;76.75;101337.31;10610899;27;20043;-74
2023/05/23 02:53:53;;;;;;;8.20;5.75;;;;;;;13.40;76.24;101344.44;10605706;27;20038;-75
2023/05/23 02:58:55;;;;;;;8.68;6.13;;;;;;;13.61;75.55;101342.41;10607079;27;20039;-76
2023/05/23 03:04:00;;;;;;;10.25;7.07;;;;;;;14.15;73.61;101337.63;10621793;27;20027;-75
2023/05/23 03:09:03;;;;;;;11.88;7.00;;;;;;;14.30;72.67;101333.91;10608393;27;20051;-75
2023/05/23 03:14:05;;;;;;;9.35;6.45;;;;;;;14.43;73.25;101324.16;10633760;27;20042;-75
2023/05/23 03:19:07;;;;;;;9.40;6.65;;;;;;;14.73;71.27;101329.38;10602651;28;20410;-74
2023/05/23 03:24:09;;;;;;;9.73;7.15;;;;;;;14.84;71.39;101332.03;10620408;28;20035;-75
2023/05/23 03:29:15;;;;;;;11.52;6.93;;;;;;;15.16;70.60;101332.22;10617117;28;20382;-75
2023/05/23 03:34:29;;;;;;;11.50;6.73;;;;;;;15.57;69.19;101329.75;10610731;28;20085;-75
2023/05/23 03:39:31;;;;;;;10.30;6.68;;;;;;;15.67;68.77;101324.13;10630507;27;20528;-75
2023/05/23 03:44:33;;;;;;;10.52;6.43;;;;;;;16.13;67.88;101328.13;10620271;28;20433;-74
2023/05/23 03:49:35;;;;;;;9.90;6.57;;;;;;;16.47;66.73;101342.50;10611429;28;20047;-74
2023/05/23 03:54:38;;;;;;;11.52;6.45;;;;;;;16.72;65.27;101323.81;10629238;27;20061;-74
2023/05/23 03:59:40;;;;;;;9.50;6.38;;;;;;;17.09;65.44;101331.13;10635347;28;20046;-74
2023/05/23 04:04:45;;;;;;;9.15;6.57;;;;;;;17.33;63.99;101330.91;10591400;28;20041;-74
2023/05/23 04:09:48;;;;;;;11.13;6.05;;;;;;;17.43;63.14;101337.06;10647812;28;20046;-75
2023/05/23 04:14:51;;;;;;;11.77;6.82;;;;;;;17.89;62.72;101332.47;10608309;28;20043;-74
2023/05/23 04:19:54;;;;;;;9.45;6.35;;;;;;;18.99;59.67;101324.38;10641505;27;20061;-74
2023/05/23 04:24:56;;;;;;;9.30;6.20;;;;;;;18.95;60.03;101320.59;10600398;27;20039;-74
2023/05/23 04:29:59;;;;;;;11.85;7.25;;;;;;;18.68;60.48;101321.59;10638337;27;20559;-75
2023/05/23 04:35:03;;;;;;;10.48;6.72;;;;;;;18.82;59.91;101333.47;10607488;27;20409;-75
2023/05/23 04:40:07;;;;;;;10.00;7.00;;;;;;;19.05;59.44;101331.44;10640856;27;20036;-75
2023/05/23 04:45:19;;;;;;;11.18;7.55;;;;;;;18.83;60.28;101335.09;10616111;27;20035;-75
2023/05/23 04:50:34;;;;;;;11.88;7.55;;;;;;;19.78;57.77;101326.22;10613806;27;20035;-75
2023/05/23 04:55:38;;;;;;;11.18;6.95;;;;;;;20.06;57.49;101335.09;10609067;27;20027;-74
2023/05/23 05:00:42;;;;;;;11.13;6.78;;;;;;;20.51;55.96;101324.41;10640434;27;20080;-73
2023/05/23 05:05:45;;;;;;;11.10;7.55;;;;;;;20.28;56.84;101320.13;10623265;27;20042;-74
2023/05/23 05:10:47;;;;;;;9.35;6.88;;;;;;;20.39;56.58;101332.59;10610806;27;20035;-76
2023/05/23 05:15:51;;;;;;;9.85;6.75;;;;;;;20.75;55.96;101323.84;10616628;27;20035;-76
2023/05/23 05:20:55;;;;;;;12.50;6.15;;;;;;;20.94;55.47;101334.59;10613643;27;20050;-76
2023/05/23 05:25:59;;;;;;;10.10;5.72;;;;;;;21.63;54.01;101325.88;10624448;27;20043;-76
2023/05/23 05:31:05;;;;;;;7.72;5.82;;;;;;;22.08;51.58;101323.25;10657530;27;20047;-76
2023/05/23 05:36:10;;;;;;;7.90;5.88;;;;;;;21.96;51.96;101332.38;10635084;27;20055;-76
2023/05/23 05:41:13;;;;;;;8.20;5.60;;;;;;;22.16;50.59;101324.34;10623197;27;20035;-77
2023/05/23 05:46:20;;;;;;;8.38;5.22;;;;;;;22.37;50.10;101307.50;10638658;27;20050;-76
2023/05/23 05:51:22;;;;;;;7.78;5.13;;;;;;;22.22;50.63;101300.63;10638706;27;20562;-76
2023/05/23 05:56:26;;;;;;;6.72;4.70;;;;;;;22.59;49.62;101306.31;10620220;27;20366;-76
2023/05/23 06:01:29;;;;;;;5.53;4.50;;;;;;;22.85;48.89;101304.84;10638306;27;20039;-77
2023/05/23 06:06:34;;;;;;;4.97;4.30;;;;;;;22.87;47.99;101307.31;10620253;27;20126;-77
2023/05/23 06:11:39;;;;;;;5.60;4.13;;;;;;;23.68;45.62;101300.75;10638593;27;20045;-78
2023/05/23 06:16:43;;;;;;;7.65;4.68;;;;;;;23.20;47.33;101300.78;10621392;27;20039;-78
2023/05/23 06:21:47;;;;;;;5.93;4.30;;;;;;;23.70;45.98;101304.00;10637332;27;20046;-78
2023/05/23 06:26:50;;;;;;;5.22;3.65;;;;;;;23.66;45.59;101294.69;10637307;27;20509;-78
2023/05/23 06:31:52;;;;;;;4.07;3.67;;;;;;;24.01;43.37;101292.13;10637245;27;20047;-77
2023/05/23 06:36:55;;;;;;;5.38;3.90;;;;;;;23.54;44.78;101291.88;10604268;27;20099;-77
2023/05/23 06:41:58;;;;;;;4.40;3.90;;;;;;;23.85;44.88;101302.47;10618740;27;20043;-77
2023/05/23 06:47:04;;;;;;;4.22;3.60;;;;;;;23.91;43.85;101292.63;10635060;27;20043;-78
2023/05/23 06:52:06;;;;;;;5.32;3.85;;;;;;;24.14;43.19;101303.28;10651506;27;20039;-76
2023/05/23 06:57:08;;;;;;;4.03;3.03;;;;;;;24.03;43.03;101297.38;10635844;27;20537;-76
2023/05/23 07:02:11;;;;;;;5.25;3.55;;;;;;;23.96;43.24;101299.97;10650771;27;20039;-77
2023/05/23 07:07:13;;;;;;;5.53;3.55;;;;;;;23.79;44.71;101294.66;10625656;27;20042;-77
2023/05/23 07:12:22;;;;;;;4.00;3.35;;;;;;;24.05;43.71;101290.22;10664172;27;20046;-78
2023/05/23 07:17:28;;;;;;;3.60;3.30;;;;;;;24.45;42.80;101294.97;10666366;27;20038;-76
2023/05/23 07:22:31;;;;;;;4.30;3.38;;;;;;;25.39;41.75;101282.94;10663146;27;20051;-76
2023/05/23 07:27:34;;;;;;;4.13;3.47;;;;;;;25.23;41.34;101280.16;10653070;27;20050;-76
2023/05/23 07:32:36;;;;;;;5.82;3.90;;;;;;;24.78;42.21;101276.97;10634873;28;20390;-77
2023/05/23 07:37:39;;;;;;;4.40;3.28;;;;;;;25.10;41.59;101275.00;10628776;28;20036;-76
2023/05/23 07:42:41;;;;;;;3.88;2.88;;;;;;;24.82;42.04;101275.91;10592520;28;20040;-75
2023/05/23 07:47:44;;;;;;;3.75;3.40;;;;;;;24.76;41.35;101282.16;10628760;27;20043;-78
2023/05/23 07:52:47;;;;;;;4.93;3.25;;;;;;;24.26;42.75;101276.00;10669769;27;20042;-77
2023/05/23 07:57:55;;;;;;;5.10;3.13;;;;;;;24.46;40.93;101267.72;10627573;27;20138;-77
2023/05/23 08:02:59;;;;;;;3.28;2.85;;;;;;;23.27;42.08;101279.44;10617358;28;20418;-77
2023/05/23 08:08:07;;;;;;;4.15;2.95;;;;;;;23.85;41.38;101276.41;10622575;27;20509;-88
2023/05/23 08:13:11;;;;;;;4.45;2.60;;;;;;;24.76;39.98;101274.53;10642888;27;20424;-88
2023/05/23 08:18:24;;;;;;;7.30;2.92;;;;;;;24.54;40.29;101277.97;10589891;28;20047;-89
2023/05/23 08:23:27;;;;;;;2.83;2.63;;;;;;;23.91;41.00;101274.97;10601292;28;20039;-88
2023/05/23 08:28:29;;;;;;;3.45;2.90;;;;;;;24.05;40.05;101275.41;10600063;28;20050;-89
2023/05/23 08:33:32;;;;;;;2.58;2.33;;;;;;;24.50;38.02;101274.28;10598283;27;20043;-87
2023/05/23 08:38:35;;;;;;;4.93;3.15;;;;;;;24.00;38.54;101272.84;10641746;27;20512;-87
2023/05/23 08:43:48;;;;;;;3.35;2.33;;;;;;;23.74;40.29;101260.09;10641548;27;20031;-87
2023/05/23 08:48:57;;;;;;;3.53;3.00;;;;;;;24.28;38.84;101267.22;10622079;27;20031;-88
2023/05/23 08:54:01;;;;;;;4.18;2.30;;;;;;;25.02;37.39;101257.19;10624576;27;20195;-88
2023/05/23 08:59:05;;;;;;;3.20;2.33;;;;;;;25.35;36.98;101258.75;10607876;27;20047;-88
2023/05/23 09:04:07;;;;;;;2.75;2.10;;;;;;;25.53;36.98;101263.59;10660043;27;20040;-88
2023/05/23 09:09:23;;;;;;;2.28;2.08;;;;;;;24.98;35.39;101270.25;10625767;27;20558;-87
2023/05/23 09:14:29;;;;;;;2.22;2.08;;;;;;;25.10;36.14;101263.78;10623368;27;20047;-87
2023/05/23 09:19:32;;;;;;;3.55;2.72;;;;;;;25.01;36.53;101265.97;10639922;27;20051;-86
2023/05/23 09:24:46;;;;;;;3.22;2.58;;;;;;;24.66;36.65;101272.28;10608488;27;20043;-88
2023/05/23 09:29:49;;;;;;;3.67;2.92;;;;;;;23.60;38.28;101279.28;10623553;27;20046;-86
2023/05/23 09:34:58;;;;;;;3.80;3.15;;;;;;;22.94;39.83;101268.38;10636846;27;20039;-87
2023/05/23 09:40:06;;;;;;;4.10;3.00;;;;;;;22.55;41.47;101265.03;10645643;27;20050;-87
2023/05/23 09:45:09;;;;;;;6.35;3.03;;;;;;;22.43;41.18;101264.19;10639242;27;20531;-87
2023/05/23 09:50:12;;;;;;;5.07;2.55;;;;;;;22.32;40.56;101269.41;10639286;27;20417;-88
2023/05/23 09:55:14;;;;;;;4.57;2.85;;;;;;;21.78;41.55;101268.59;10638811;27;20051;-87
2023/05/23 10:00:17;;;;;;;2.80;2.50;;;;;;;21.91;41.84;101267.50;10656854;27;20073;-87
2023/05/23 10:05:47;;;;;;;4.43;3.13;;;;;;;21.77;41.41;101270.56;10638721;27;20489;-87
2023/05/23 10:10:55;;;;;;;4.47;2.60;;;;;;;21.79;41.84;101268.25;10637869;27;20039;-87
2023/05/23 10:16:14;;;;;;;6.22;3.15;;;;;;;22.13;41.79;101272.72;10652772;27;20035;-88
2023/05/23 10:21:24;;;;;;;3.75;3.10;;;;;;;22.11;41.20;101263.88;10637825;27;20539;-88
2023/05/23 10:26:27;;;;;;;3.33;3.03;;;;;;;21.95;41.01;101258.06;10638672;27;20043;-87
2023/05/23 10:31:30;;;;;;;6.32;2.85;;;;;;;22.03;40.69;101258.31;10639648;27;20058;-87
2023/05/23 10:36:40;;;;;;;3.20;2.63;;;;;;;21.83;41.20;101255.22;10638784;27;20054;-87
2023/05/23 10:41:52;;;;;;;4.25;2.88;;;;;;;21.90;40.97;101249.09;10576298;28;20040;-86
2023/05/23 10:47:00;;;;;;;3.42;2.85;;;;;;;21.87;42.40;101252.59;10590370;28;20058;-87
2023/05/23 10:52:02;;;;;;;2.87;2.53;;;;;;;21.93;41.53;101246.44;10608033;28;20047;-88
2023/05/23 10:57:04;;;;;;;2.90;2.53;;;;;;;21.97;40.19;101244.56;10570658;28;20051;-87
2023/05/23 11:02:14;;;;;;;4.57;2.67;;;;;;;21.80;41.59;101246.72;10602247;28;20055;-86
2023/05/23 11:07:32;;;;;;;4.43;2.88;;;;;;;21.74;40.76;101237.72;10592427;28;20040;-88
2023/05/23 11:12:42;;;;;;;4.18;2.90;;;;;;;21.52;41.20;101238.06;10610042;28;20035;-84
2023/05/23 11:17:52;;;;;;;4.18;3.08;;;;;;;21.32;41.65;101229.34;10606474;28;20505;-90
2023/05/23 11:23:02;;;;;;;4.25;3.10;;;;;;;21.48;41.43;101223.16;10590390;28;20039;-87
2023/05/23 11:28:05;;;;;;;4.55;2.95;;;;;;;21.83;40.48;101223.66;10591309;28;20520;-88
2023/05/23 11:33:14;;;;;;;4.15;2.38;;;;;;;22.24;40.04;101220.00;10633031;27;20046;-86
2023/05/23 11:38:16;;;;;;;3.33;2.50;;;;;;;22.31;38.42;101208.25;10659178;27;20059;-86
2023/05/23 11:43:19;;;;;;;4.88;3.00;;;;;;;22.08;38.47;101205.88;10659529;27;20039;-84
2023/05/23 11:48:22;;;;;;;4.43;2.45;;;;;;;22.14;36.85;101203.66;10636556;27;20039;-84
2023/05/23 11:53:26;;;;;;;2.72;2.42;;;;;;;21.65;38.31;101200.66;10622082;27;20034;-85
2023/05/23 11:58:36;;;;;;;4.40;2.40;;;;;;;21.94;38.58;101189.38;10640303;27;20035;-84
2023/05/23 12:03:46;;;;;;;3.33;2.60;;;;;;;22.03;38.36;101185.66;10657338;27;20055;-84
2023/05/23 12:08:50;;;;;;;4.10;2.40;;;;;;;22.06;38.00;101174.66;10643596;27;20070;-87
2023/05/23 12:13:52;;;;;;;2.42;2.20;;;;;;;22.16;37.52;101167.78;10643240;27;20039;-86
2023/05/23 12:18:59;;;;;;;3.78;2.60;;;;;;;22.40;38.04;101167.03;10659026;27;20081;-87
2023/05/23 12:24:14;;;;;;;6.10;2.75;;;;;;;22.20;38.88;101166.75;10636222;27;20035;-76
2023/05/23 12:29:21;;;;;;;4.43;3.08;;;;;;;22.09;38.94;101173.97;10633940;27;20047;-78
2023/05/23 12:34:23;;;;;;;3.40;2.43;;;;;;;22.09;37.84;101173.16;10601311;27;20051;-74
2023/05/23 12:39:29;;;;;;;3.53;2.75;;;;;;;22.06;38.46;101166.28;10613085;27;20172;-75
2023/05/23 12:44:32;;;;;;;3.47;2.53;;;;;;;22.03;37.81;101158.53;10633354;27;20066;-75
2023/05/23 12:49:34;;;;;;;4.90;2.17;;;;;;;22.01;37.48;101157.25;10619491;27;20043;-75
2023/05/23 12:54:36;;;;;;;5.60;2.70;;;;;;;22.10;37.29;101158.00;10643051;27;20472;-74
2023/05/23 12:59:39;;;;;;;3.45;2.30;;;;;;;21.92;37.70;101158.16;10640952;27;20126;-74
2023/05/23 13:04:41;;;;;;;2.75;2.38;;;;;;;21.91;38.77;101162.13;10614271;27;20440;-74
2023/05/23 13:09:44;;;;;;;3.63;2.78;;;;;;;21.97;37.84;101157.13;10645921;27;20711;-72
2023/05/23 13:14:48;;;;;;;4.68;2.50;;;;;;;22.04;38.50;101159.34;10625481;27;20047;-75
2023/05/23 13:19:50;;;;;;;3.35;2.63;;;;;;;22.16;37.40;101145.44;10602619;27;20057;-78
2023/05/23 13:24:57;;;;;;;3.42;3.03;;;;;;;22.08;37.32;101147.19;10643021;27;20642;-77
2023/05/23 13:30:00;;;;;;;4.32;2.75;;;;;;;22.21;37.84;101150.78;10634910;27;20031;-77
2023/05/23 13:35:02;;;;;;;5.60;3.20;;;;;;;22.50;37.61;101146.97;10615866;27;20051;-77
2023/05/23 13:40:05;;;;;;;3.95;2.35;;;;;;;22.57;36.69;101144.41;10654543;27;20097;-78
2023/05/23 13:45:08;;;;;;;3.25;2.40;;;;;;;22.65;34.79;101140.69;10635804;27;20039;-79
2023/05/23 13:50:10;;;;;;;3.80;2.70;;;;;;;22.44;36.37;101132.41;10639845;27;20031;-76
2023/05/23 13:55:12;;;;;;;4.75;2.70;;;;;;;22.55;36.44;101130.75;10638685;27;20521;-78
2023/05/23 14:00:15;;;;;;;3.10;2.80;;;;;;;22.60;36.12;101134.50;10654199;27;20035;-77
2023/05/23 14:05:18;;;;;;;4.57;3.00;;;;;;;22.56;36.16;101142.75;10634283;27;20043;-78
2023/05/23 14:10:20;;;;;;;3.17;2.58;;;;;;;22.69;36.27;101140.78;10615272;27;20048;-77
2023/05/23 14:15:22;;;;;;;3.42;2.90;;;;;;;22.71;36.54;101132.84;10635437;27;20734;-77
2023/05/23 14:20:25;;;;;;;5.70;2.85;;;;;;;22.79;35.88;101138.34;10649549;27;20050;-78
2023/05/23 14:25:27;;;;;;;3.00;2.70;;;;;;;22.63;35.73;101140.22;10633064;27;20039;-78
2023/05/23 14:30:29;;;;;;;6.88;2.58;;;;;;;22.60;35.69;101134.50;10634098;27;20042;-78
2023/05/23 14:35:31;;;;;;;4.53;2.90;;;;;;;22.70;35.57;101131.22;10633686;27;20059;-78
2023/05/23 14:40:33;;;;;;;3.28;2.47;;;;;;;22.89;36.92;101136.25;10628851;27;20050;-78
2023/05/23 14:45:36;;;;;;;3.70;2.67;;;;;;;23.02;36.14;101138.66;10613245;27;20039;-77
2023/05/23 14:50:38;;;;;;;3.20;2.60;;;;;;;23.03;36.14;101136.69;10651212;27;20035;-77
2023/05/23 14:55:40;;;;;;;2.67;2.35;;;;;;;23.07;35.47;101135.59;10632827;27;20093;-78
2023/05/23 15:00:46;;;;;;;2.60;2.40;;;;;;;22.88;36.14;101141.03;10620811;27;20055;-78
2023/05/23 15:05:48;;;;;;;5.82;2.78;;;;;;;23.00;35.53;101129.81;10632872;27;20059;-77
2023/05/23 15:10:51;;;;;;;5.45;3.08;;;;;;;22.95;37.00;101138.47;10626942;27;20386;-77
2023/05/23 15:15:54;;;;;;;4.10;2.67;;;;;;;22.92;37.30;101132.75;10639902;27;20120;-77
2023/05/23 15:20:56;;;;;;;8.10;3.10;;;;;;;22.99;36.31;101135.75;10645349;27;20035;-78
2023/05/23 15:25:58;;;;;;;7.00;3.65;;;;;;;22.91;37.64;101131.94;10630617;27;20053;-77
2023/05/23 15:31:00;;;;;;;3.85;3.45;;;;;;;22.92;37.55;101133.56;10648685;28;20046;-77
2023/05/23 15:36:03;;;;;;;7.68;3.28;;;;;;;22.73;38.00;101136.09;10627662;27;20062;-77
2023/05/23 15:41:06;;;;;;;3.67;2.67;;;;;;;22.61;38.15;101122.97;10649186;27;20043;-77
2023/05/23 15:46:08;;;;;;;3.85;2.45;;;;;;;22.53;38.04;101121.91;10614253;28;20031;-77
2023/05/23 15:51:11;;;;;;;3.42;2.67;;;;;;;22.38;38.00;101125.41;10596271;28;20498;-77
2023/05/23 15:56:14;;;;;;;3.67;2.88;;;;;;;22.36;37.90;101124.94;10649539;28;20496;-77
2023/05/23 16:01:16;;;;;;;4.40;2.65;;;;;;;22.31;38.39;101118.78;10630858;28;20039;-77
2023/05/23 16:06:20;;;;;;;3.58;3.00;;;;;;;22.14;38.59;101117.00;10649055;27;20043;-77
2023/05/23 16:11:23;;;;;;;3.97;2.92;;;;;;;22.01;39.02;101121.72;10614100;28;20055;-77
2023/05/23 16:16:25;;;;;;;4.03;3.10;;;;;;;21.94;39.14;101121.50;10644330;28;20039;-77
2023/05/23 16:21:27;;;;;;;5.95;3.58;;;;;;;21.91;38.96;101128.59;10635084;27;20050;-77
2023/05/23 16:26:29;;;;;;;3.35;2.65;;;;;;;21.79;39.08;101128.56;10638240;27;20031;-78
2023/05/23 16:31:31;;;;;;;4.75;3.03;;;;;;;21.73;39.62;101132.75;10638506;27;20055;-78
2023/05/23 16:36:33;;;;;;;4.25;3.05;;;;;;;21.62;39.07;101132.34;10638078;27;20050;-78
2023/05/23 16:41:36;;;;;;;3.97;3.42;;;;;;;21.55;40.36;101123.72;10635746;27;20516;-78
2023/05/23 16:46:38;;;;;;;5.05;3.72;;;;;;;21.48;40.05;101131.00;10603545;27;20046;-78
2023/05/23 16:51:40;;;;;;;9.32;3.97;;;;;;;21.43;40.19;101136.81;10639825;27;20592;-78
2023/05/23 16:56:42;;;;;;;6.68;3.47;;;;;;;21.35;40.53;101136.56;10637172;27;20042;-78
2023/05/23 17:01:44;;;;;;;6.85;3.92;;;;;;;21.26;40.52;101129.41;10655510;27;20054;-78
2023/05/23 17:06:46;;;;;;;6.45;3.58;;;;;;;21.13;41.22;101130.47;10636707;27;20405;-77
2023/05/23 17:11:49;;;;;;;3.95;3.42;;;;;;;21.11;41.30;101129.97;10655873;27;20038;-77
2023/05/23 17:16:52;;;;;;;3.97;2.72;;;;;;;21.02;41.76;101146.81;10653021;27;20043;-77
2023/05/23 17:21:54;;;;;;;5.35;3.30;;;;;;;20.83;43.22;101143.66;10633117;27;20887;-77
2023/05/23 17:26:56;;;;;;;5.05;3.35;;;;;;;20.60;44.09;101152.31;10651472;27;20380;-78
2023/05/23 17:31:59;;;;;;;4.63;3.15;;;;;;;20.41;45.39;101152.72;10650428;27;20043;-78
2023/05/23 17:37:03;;;;;;;5.03;3.75;;;;;;;20.11;45.53;101146.25;10594868;28;20046;-78
2023/05/23 17:42:05;;;;;;;3.58;3.00;;;;;;;19.88;46.31;101158.78;10642103;27;20051;-78
2023/05/23 17:47:11;;;;;;;3.80;2.80;;;;;;;19.56;47.04;101149.00;10576665;28;20047;-78
2023/05/23 17:52:13;;;;;;;3.83;2.47;;;;;;;19.35;48.20;101157.19;10520533;28;20490;-77
2023/05/23 17:57:15;;;;;;;3.47;3.17;;;;;;;19.12;49.25;101170.44;10571553;28;20529;-78
2023/05/23 18:02:18;;;;;;;7.13;3.22;;;;;;;18.90;49.39;101173.34;10602695;28;20051;-78
2023/05/23 18:07:20;;;;;;;4.15;2.90;;;;;;;18.73;50.67;101165.78;10618195;27;20039;-78
2023/05/23 18:12:22;;;;;;;3.75;3.00;;;;;;;18.61;50.99;101171.94;10611183;27;20520;-79
2023/05/23 18:17:25;;;;;;;7.90;2.97;;;;;;;18.61;51.37;101182.25;10601876;27;20039;-77
2023/05/23 18:22:30;;;;;;;4.28;2.78;;;;;;;18.54;51.68;101179.09;10592896;27;20409;-77
2023/05/23 18:27:33;;;;;;;3.65;2.83;;;;;;;18.49;51.84;101174.50;10612151;27;20528;-77
2023/05/23 18:32:35;;;;;;;6.88;2.55;;;;;;;18.46;52.31;101171.56;10606854;27;20047;-77
2023/05/23 18:37:38;;;;;;;6.45;3.33;;;;;;;18.44;52.38;101176.63;10632045;27;20492;-78
2023/05/23 18:42:40;;;;;;;4.75;3.50;;;;;;;18.39;52.31;101172.00;10650612;27;20054;-78
2023/05/23 18:47:43;;;;;;;4.65;3.17;;;;;;;18.35;52.29;101174.59;10646112;27;20386;-78
2023/05/23 18:52:45;;;;;;;4.30;3.17;;;;;;;18.28;52.31;101176.22;10660213;27;20042;-76
2023/05/23 18:57:48;;;;;;;5.03;2.80;;;;;;;18.34;52.12;101177.72;10652927;27;20034;-76
2023/05/23 19:02:50;;;;;;;5.65;2.75;;;;;;;18.36;51.35;101176.25;10616912;27;20043;-78
2023/05/23 19:07:52;;;;;;;3.30;2.60;;;;;;;18.36;51.65;101176.25;10649374;27;20043;-80
2023/05/23 19:12:55;;;;;;;5.22;3.63;;;;;;;18.33;51.42;101176.06;10657595;27;20043;-80
2023/05/23 19:17:57;;;;;;;5.18;3.15;;;;;;;18.33;51.48;101185.22;10663435;27;20039;-79
2023/05/23 19:22:59;;;;;;;4.90;3.05;;;;;;;18.36;50.85;101186.53;10642537;27;20050;-79
2023/05/23 19:28:02;;;;;;;8.45;3.20;;;;;;;18.39;51.40;101192.28;10637970;27;20032;-79
2023/05/23 19:33:05;;;;;;;5.82;3.28;;;;;;;18.42;51.03;101190.84;10660853;28;20080;-84
2023/05/23 19:38:07;;;;;;;4.05;3.10;;;;;;;18.38;51.48;101187.03;10613873;28;20121;-84
2023/05/23 19:43:09;;;;;;;6.68;3.30;;;;;;;18.37;51.36;101197.34;10576756;28;20054;-82
2023/05/23 19:48:12;;;;;;;6.93;3.33;;;;;;;18.37;51.77;101200.09;10625751;28;20040;-78
2023/05/23 19:53:15;;;;;;;8.10;3.83;;;;;;;18.41;51.26;101199.50;10606989;27;20417;-78
2023/05/23 19:58:17;;;;;;;7.97;3.85;;;;;;;18.44;52.45;101207.19;10638454;27;20049;-77
2023/05/23 20:03:21;;;;;;;8.75;4.28;;;;;;;18.49;52.18;101212.59;10604481;27;20420;-78
2023/05/23 20:08:29;;;;;;;7.47;4.50;;;;;;;18.49;54.87;101227.31;10609245;28;20580;-79
2023/05/23 20:13:37;;;;;;;11.05;4.57;;;;;;;18.26;52.54;101214.63;10593565;27;20061;-77
2023/05/23 20:18:41;;;;;;;10.65;4.63;;;;;;;18.15;52.58;101214.06;10602163;27;20040;-77
2023/05/23 20:23:44;;;;;;;6.65;4.07;;;;;;;17.94;52.93;101215.72;10618670;27;20528;-79
2023/05/23 20:28:47;;;;;;;7.47;3.85;;;;;;;17.81;52.94;101225.75;10579598;28;20042;-76
2023/05/23 20:33:51;;;;;;;10.18;4.28;;;;;;;17.78;53.26;101218.88;10596776;27;20040;-76
2023/05/23 20:38:53;;;;;;;9.77;4.22;;;;;;;17.69;53.31;101226.31;10574381;28;20046;-77
2023/05/23 20:44:01;;;;;;;12.07;3.80;;;;;;;17.68;53.50;101221.06;10573217;27;20054;-78
2023/05/23 20:49:28;;;;;;;6.50;4.30;;;;;;;17.70;53.88;101225.22;10592446;27;20040;-78
2023/05/23 20:54:34;;;;;;;;;;;;;;;17.61;54.23;101218.72;10594115;27;20043;-83
2023/05/23 20:59:36;;;;;;;8.43;3.75;;;;;;;17.69;54.85;101229.09;10599000;27;19924;-76
2023/05/23 21:04:38;;;;;;;10.10;4.13;;;;;;;17.74;54.89;101229.00;10572085;27;20055;-74
2023/05/23 21:09:41;;;;;;;5.55;4.10;;;;;;;17.73;54.89;101227.34;10583209;28;20063;-75
2023/05/23 21:14:46;;;;;;;10.95;4.72;;;;;;;17.70;55.16;101233.53;10591762;27;20038;-77
2023/05/23 21:19:48;;;;;;;9.10;4.50;;;;;;;17.63;55.47;101237.84;10604781;28;20039;-74
2023/05/23 21:24:50;;;;;;;14.18;5.20;;;;;;;17.49;55.98;101241.47;10560228;27;20032;-74
2023/05/23 21:29:52;;;;;;;12.75;4.93;;;;;;;17.33;56.95;101244.91;10596968;28;20039;-74
2023/05/23 21:34:55;;;;;;;9.93;4.35;;;;;;;17.17;57.21;101238.88;10648991;27;20047;-75
2023/05/23 21:39:57;;;;;;;9.70;4.38;;;;;;;17.03;57.49;101243.63;10636292;27;20512;-74
2023/05/23 21:44:59;;;;;;;11.88;4.82;;;;;;;16.87;57.75;101240.38;10637335;27;20035;-73
2023/05/23 21:50:03;;;;;;;12.63;4.53;;;;;;;16.90;59.00;101248.06;10655196;27;20035;-74
2023/05/23 21:55:05;;;;;;;12.52;4.93;;;;;;;16.86;59.63;101239.53;10653103;27;20046;-72
2023/05/23 22:00:11;;;;;;;13.52;5.10;;;;;;;16.90;60.12;101239.75;10633907;27;20066;-74
2023/05/23 22:05:16;;;;;;;11.65;5.13;;;;;;;16.86;59.43;101242.31;10638540;27;20130;-74
2023/05/23 22:10:18;;;;;;;8.02;4.72;;;;;;;16.86;59.90;101236.78;10653375;27;20047;-74
2023/05/23 22:15:20;;;;;;;11.40;5.00;;;;;;;16.84;60.01;101238.22;10648241;27;20541;-73
2023/05/23 22:20:22;;;;;;;9.68;5.75;;;;;;;16.84;60.67;101250.13;10663932;27;20512;-73
2023/05/23 22:25:24;;;;;;;10.27;6.22;;;;;;;16.72;62.71;101240.66;10638711;27;20082;-71
2023/05/23 22:30:27;;;;;;;13.25;6.57;;;;;;;16.62;63.61;101247.19;10638540;27;20054;-71
2023/05/23 22:35:29;;;;;;;9.23;5.57;;;;;;;16.56;64.96;101243.69;10620591;27;20054;-71
2023/05/23 22:40:32;;;;;;;11.55;5.65;;;;;;;16.57;64.80;101248.13;10617258;27;20035;-71
2023/05/23 22:45:41;;;;;;;10.60;5.88;;;;;;;16.49;65.23;101248.84;10616208;27;20046;-71
2023/05/23 22:50:43;;;;;;;11.52;6.75;;;;;;;16.37;66.34;101244.91;10587827;27;20031;-71
2023/05/23 22:55:45;;;;;;;13.77;7.25;;;;;;;16.24;67.17;101243.75;10611249;27;20041;-73
2023/05/23 23:00:47;;;;;;;12.15;6.15;;;;;;;16.09;67.40;101244.03;10593036;28;20047;-73
2023/05/23 23:05:49;;;;;;;16.52;5.82;;;;;;;16.13;66.56;101233.97;10637727;27;20035;-73
2023/05/23 23:10:52;;;;;;;9.60;5.95;;;;;;;16.09;67.27;101232.94;10611148;27;20421;-73
2023/05/23 23:15:54;;;;;;;14.02;6.10;;;;;;;16.15;66.86;101229.81;10612285;28;20035;-73